createdAt,value
2023-03-17T00:01:21.710Z,65.32
2023-03-17T00:03:49.411Z,65.45
2023-03-17T00:06:17.792Z,63.72
2023-03-17T00:08:45.723Z,63.72
2023-03-17T00:11:13.802Z,66.97
2023-03-17T00:13:41.646Z,63.20
2023-03-17T00:16:18.852Z,62.01
2023-03-17T00:18:45.653Z,67.82
2023-03-17T00:21:16.813Z,62.81
2023-03-17T00:23:48.657Z,66.02
2023-03-17T00:26:15.278Z,64.88
2023-03-17T00:28:41.782Z,62.79
2023-03-17T00:31:18.830Z,63.04
2023-03-17T00:33:45.457Z,62.69
2023-03-17T00:36:24.275Z,66.38
2023-03-17T00:38:51.063Z,62.06
2023-03-17T00:41:18.283Z,61.74
2023-03-17T00:43:44.922Z,63.54
2023-03-17T00:46:26.673Z,62.83
2023-03-17T00:48:53.247Z,63.39
2023-03-17T00:51:19.898Z,63.59
2023-03-17T00:53:46.676Z,62.44
2023-03-17T00:56:14.652Z,61.14
2023-03-17T00:58:41.158Z,60.55
2023-03-17T01:01:08.679Z,64.49
2023-03-17T01:03:35.492Z,63.97
2023-03-17T01:06:02.234Z,64.41
2023-03-17T01:08:30.033Z,62.71
2023-03-17T01:10:56.804Z,62.27
2023-03-17T01:13:23.837Z,62.12
2023-03-17T01:15:50.544Z,62.36
2023-03-17T01:18:18.187Z,61.89
2023-03-17T01:20:44.823Z,63.78
2023-03-17T01:23:11.366Z,66.51
2023-03-17T01:25:38.573Z,70.12
2023-03-17T01:28:05.681Z,71.94
2023-03-17T01:30:39.609Z,72.27
2023-03-17T01:33:08.438Z,70.94
2023-03-17T01:35:35.448Z,70.63
2023-03-17T01:38:02.859Z,69.46
2023-03-17T01:40:32.357Z,67.55
2023-03-17T01:43:11.042Z,65.28
2023-03-17T01:46:14.691Z,67.21
2023-03-17T01:48:43.233Z,64.40
2023-03-17T01:51:11.612Z,65.90
2023-03-17T01:53:38.084Z,68.26
2023-03-17T01:56:04.669Z,65.50
2023-03-17T01:58:31.118Z,63.99
2023-03-17T02:00:57.756Z,66.94
2023-03-17T02:03:24.304Z,65.94
2023-03-17T02:05:51.435Z,64.61
2023-03-17T02:08:17.913Z,62.45
2023-03-17T02:10:45.223Z,67.96
2023-03-17T02:13:12.344Z,63.98
2023-03-17T02:15:43.924Z,63.95
2023-03-17T02:18:12.462Z,63.28
2023-03-17T02:20:38.855Z,67.71
2023-03-17T02:23:05.973Z,70.22
2023-03-17T02:25:33.314Z,66.94
2023-03-17T02:28:08.308Z,68.22
2023-03-17T02:30:34.982Z,70.29
2023-03-17T02:33:02.568Z,67.94
2023-03-17T02:35:29.548Z,69.74
2023-03-17T02:37:56.498Z,70.70
2023-03-17T02:40:23.292Z,71.49
2023-03-17T02:42:50.179Z,68.16
2023-03-17T02:45:16.981Z,65.54
2023-03-17T02:47:43.452Z,64.91
2023-03-17T02:50:10.697Z,64.57
2023-03-17T02:52:37.443Z,65.66
2023-03-17T02:55:04.060Z,66.72
2023-03-17T02:57:30.758Z,66.89
2023-03-17T02:59:57.267Z,67.98
2023-03-17T03:02:23.769Z,65.11
2023-03-17T03:04:50.430Z,68.25
2023-03-17T03:07:17.067Z,71.22
2023-03-17T03:09:43.608Z,72.18
2023-03-17T03:12:11.110Z,73.94
2023-03-17T03:14:37.761Z,74.75
2023-03-17T03:17:04.420Z,74.92
2023-03-17T03:19:30.941Z,73.61
2023-03-17T03:21:57.500Z,69.55
2023-03-17T03:24:24.178Z,71.82
2023-03-17T03:26:50.758Z,72.79
2023-03-17T03:29:17.694Z,73.98
2023-03-17T03:31:44.210Z,74.20
2023-03-17T03:34:10.946Z,75.14
2023-03-17T03:36:37.701Z,75.45
2023-03-17T03:39:04.175Z,75.15
2023-03-17T03:41:30.723Z,76.23
2023-03-17T03:43:57.268Z,77.52
2023-03-17T03:46:23.784Z,77.50
2023-03-17T03:48:50.352Z,77.83
2023-03-17T03:51:16.947Z,76.84
2023-03-17T03:53:43.454Z,77.32
2023-03-17T03:56:10.015Z,78.69
2023-03-17T03:58:36.729Z,77.99
2023-03-17T04:01:07.257Z,78.64
2023-03-17T04:03:33.714Z,78.96
2023-03-17T04:06:00.250Z,78.23
2023-03-17T04:08:27.226Z,76.45
2023-03-17T04:10:53.694Z,80.25
2023-03-17T04:13:20.265Z,78.99
2023-03-17T04:15:46.770Z,78.84
2023-03-17T04:18:13.260Z,79.26
2023-03-17T04:20:39.780Z,79.62
2023-03-17T04:23:06.644Z,79.45
2023-03-17T04:25:33.230Z,78.62
2023-03-17T04:27:59.799Z,78.26
2023-03-17T04:30:26.370Z,79.05
2023-03-17T04:32:52.894Z,79.54
2023-03-17T04:35:20.762Z,78.80
2023-03-17T04:37:48.411Z,80.41
2023-03-17T04:40:15.860Z,79.12
2023-03-17T04:42:42.694Z,78.47
2023-03-17T04:45:11.199Z,79.38
2023-03-17T04:47:37.791Z,80.18
2023-03-17T04:50:04.667Z,77.35
2023-03-17T04:52:31.254Z,79.18
2023-03-17T04:54:57.729Z,77.42
2023-03-17T04:57:24.598Z,78.12
2023-03-17T04:59:51.380Z,77.30
2023-03-17T05:02:18.837Z,75.44
2023-03-17T05:04:45.879Z,73.90
2023-03-17T05:07:12.989Z,72.04
2023-03-17T05:09:39.455Z,71.77
2023-03-17T05:12:06.958Z,71.62
2023-03-17T05:14:33.599Z,70.29
2023-03-17T05:17:00.128Z,69.95
2023-03-17T05:19:26.962Z,70.49
2023-03-17T05:21:53.455Z,74.54
2023-03-17T05:24:20.060Z,74.73
2023-03-17T05:26:46.596Z,76.81
2023-03-17T05:29:13.069Z,76.91
2023-03-17T05:31:39.546Z,76.94
2023-03-17T05:34:06.126Z,73.28
2023-03-17T05:36:33.474Z,70.70
2023-03-17T05:38:59.985Z,71.05
2023-03-17T05:41:26.549Z,70.08
2023-03-17T05:43:53.051Z,70.61
2023-03-17T05:46:20.555Z,73.65
2023-03-17T05:48:47.491Z,70.46
2023-03-17T05:51:13.979Z,69.74
2023-03-17T05:53:40.994Z,71.57
2023-03-17T05:56:07.970Z,73.79
2023-03-17T05:58:34.508Z,73.66
2023-03-17T06:01:01.080Z,76.19
2023-03-17T06:03:27.657Z,78.73
2023-03-17T06:05:54.465Z,78.21
2023-03-17T06:08:21.284Z,76.87
2023-03-17T06:10:47.954Z,74.84
2023-03-17T06:13:14.870Z,73.13
2023-03-17T06:15:42.973Z,69.32
2023-03-17T06:18:09.680Z,70.58
2023-03-17T06:20:36.698Z,75.69
2023-03-17T06:23:05.559Z,75.82
2023-03-17T06:25:34.493Z,75.88
2023-03-17T06:28:03.587Z,72.86
2023-03-17T06:30:31.316Z,69.02
2023-03-17T06:32:57.986Z,68.81
2023-03-17T06:35:25.176Z,68.24
2023-03-17T06:37:51.721Z,66.98
2023-03-17T06:40:18.353Z,66.19
2023-03-17T06:42:44.853Z,66.82
2023-03-17T06:45:12.016Z,65.11
2023-03-17T06:47:39.752Z,65.50
2023-03-17T06:50:07.660Z,64.67
2023-03-17T06:52:34.171Z,63.85
2023-03-17T06:55:00.746Z,63.43
2023-03-17T06:57:27.326Z,62.69
2023-03-17T06:59:53.976Z,62.30
2023-03-17T07:02:23.410Z,62.68
2023-03-17T07:04:49.933Z,64.04
2023-03-17T07:07:16.619Z,62.46
2023-03-17T07:09:43.123Z,60.81
2023-03-17T07:12:10.305Z,61.82
2023-03-17T07:14:36.877Z,61.28
2023-03-17T07:17:04.474Z,60.35
2023-03-17T07:19:31.820Z,60.08
2023-03-17T07:21:58.346Z,62.38
2023-03-17T07:24:25.226Z,59.59
2023-03-17T07:26:52.174Z,62.12
2023-03-17T07:29:18.743Z,60.69
2023-03-17T07:31:45.554Z,60.81
2023-03-17T07:34:12.663Z,60.63
2023-03-17T07:36:39.761Z,62.92
2023-03-17T07:39:06.577Z,61.73
2023-03-17T07:41:33.107Z,61.13
2023-03-17T07:43:59.615Z,61.49
2023-03-17T07:46:26.548Z,61.79
2023-03-17T07:48:53.311Z,61.32
2023-03-17T07:51:22.154Z,62.20
2023-03-17T07:53:50.143Z,61.42
2023-03-17T07:56:17.668Z,60.45
2023-03-17T07:58:44.174Z,59.90
2023-03-17T08:01:11.048Z,60.14
2023-03-17T08:03:41.007Z,59.42
2023-03-17T08:06:08.568Z,58.61
2023-03-17T08:08:35.237Z,61.81
2023-03-17T08:11:03.635Z,60.34
2023-03-17T08:13:31.083Z,57.82
2023-03-17T08:15:57.685Z,58.35
2023-03-17T08:18:24.264Z,59.07
2023-03-17T08:20:51.402Z,58.66
2023-03-17T08:23:19.013Z,57.47
2023-03-17T08:25:46.601Z,58.19
2023-03-17T08:28:14.163Z,58.28
2023-03-17T08:30:44.835Z,58.41
2023-03-17T08:33:11.494Z,58.71
2023-03-17T08:35:41.504Z,59.12
2023-03-17T08:38:08.493Z,57.44
2023-03-17T08:40:35.053Z,59.02
2023-03-17T08:43:01.648Z,58.71
2023-03-17T08:45:28.352Z,59.11
2023-03-17T08:47:54.978Z,58.06
2023-03-17T08:50:22.661Z,58.64
2023-03-17T08:52:49.576Z,55.25
2023-03-17T08:55:16.334Z,57.79
2023-03-17T08:57:44.633Z,57.55
2023-03-17T09:00:13.196Z,56.64
2023-03-17T09:02:40.973Z,56.03
2023-03-17T09:05:07.604Z,55.96
2023-03-17T09:07:34.325Z,58.09
2023-03-17T09:10:03.811Z,54.64
2023-03-17T09:12:31.223Z,57.78
2023-03-17T09:14:58.389Z,55.27
2023-03-17T09:17:24.881Z,54.73
2023-03-17T09:19:51.597Z,57.96
2023-03-17T09:22:18.978Z,57.70
2023-03-17T09:24:46.537Z,55.37
2023-03-17T09:27:13.092Z,55.66
2023-03-17T09:29:39.724Z,56.29
2023-03-17T09:32:06.358Z,55.61
2023-03-17T09:34:33.018Z,57.31
2023-03-17T09:36:59.795Z,56.38
2023-03-17T09:39:27.489Z,53.42
2023-03-17T09:42:18.781Z,54.43
2023-03-17T09:45:06.396Z,56.00
2023-03-17T09:47:53.752Z,55.42
2023-03-17T09:50:25.978Z,56.27
2023-03-17T09:52:52.975Z,55.60
2023-03-17T09:55:24.983Z,53.09
2023-03-17T09:57:52.226Z,55.81
2023-03-17T10:00:20.714Z,50.66
2023-03-17T10:02:47.310Z,52.41
2023-03-17T10:05:20.627Z,54.87
2023-03-17T10:07:50.736Z,54.57
2023-03-17T10:10:32.801Z,53.53
2023-03-17T10:13:18.090Z,53.42
2023-03-17T10:15:44.483Z,51.44
2023-03-17T10:18:13.229Z,52.21
2023-03-17T10:21:19.302Z,53.48
2023-03-17T10:23:46.011Z,51.89
2023-03-17T10:26:50.867Z,53.49
2023-03-17T10:29:22.522Z,53.08
2023-03-17T10:31:49.596Z,52.31
2023-03-17T10:34:17.904Z,51.97
2023-03-17T10:36:49.388Z,51.45
2023-03-17T10:39:20.608Z,52.74
2023-03-17T10:42:11.476Z,52.48
2023-03-17T10:45:03.721Z,51.19
2023-03-17T10:47:31.667Z,49.66
2023-03-17T10:50:03.029Z,51.50
2023-03-17T10:52:31.072Z,49.58
2023-03-17T10:55:01.991Z,51.04
2023-03-17T10:57:28.725Z,52.32
2023-03-17T10:59:56.462Z,50.32
2023-03-17T11:02:28.045Z,50.42
2023-03-17T11:04:59.503Z,50.41
2023-03-17T11:07:38.125Z,49.80
2023-03-17T11:10:15.313Z,50.88
2023-03-17T11:12:42.404Z,49.49
2023-03-17T11:15:15.530Z,52.43
2023-03-17T11:17:59.022Z,49.69
2023-03-17T11:20:44.624Z,51.30
2023-03-17T11:23:23.671Z,50.02
2023-03-17T11:26:01.766Z,51.24
2023-03-17T11:28:30.903Z,49.71
2023-03-17T11:31:22.055Z,48.48
2023-03-17T11:34:08.691Z,46.01
2023-03-17T11:36:46.089Z,46.65
2023-03-17T11:39:25.461Z,49.95
2023-03-17T11:42:27.539Z,47.24
2023-03-17T11:44:58.977Z,48.39
2023-03-17T11:47:49.845Z,51.19
2023-03-17T11:50:30.210Z,47.63
2023-03-17T11:53:06.100Z,50.50
2023-03-17T11:55:50.065Z,49.80
2023-03-17T11:58:24.174Z,45.78
2023-03-17T12:00:52.757Z,48.37
2023-03-17T12:03:38.420Z,46.64
2023-03-17T12:06:07.501Z,48.38
2023-03-17T12:08:45.520Z,46.53
2023-03-17T12:11:18.279Z,45.66
2023-03-17T12:13:46.900Z,48.57
2023-03-17T12:16:25.570Z,45.87
2023-03-17T12:19:00.409Z,45.63
2023-03-17T12:21:45.718Z,49.13
2023-03-17T12:24:39.924Z,47.87
2023-03-17T12:27:13.880Z,46.66
2023-03-17T12:29:52.575Z,46.63
2023-03-17T12:32:27.716Z,45.93
2023-03-17T12:34:58.447Z,44.12
2023-03-17T12:37:27.398Z,46.24
2023-03-17T12:40:55.354Z,44.50
2023-03-17T12:43:34.084Z,42.53
2023-03-17T12:46:09.336Z,45.26
2023-03-17T12:48:58.454Z,43.85
2023-03-17T12:51:53.847Z,45.11
2023-03-17T12:54:27.667Z,44.60
2023-03-17T12:56:55.621Z,45.61
2023-03-17T12:59:24.249Z,45.28
2023-03-17T13:02:16.153Z,42.54
2023-03-17T13:05:09.958Z,43.62
2023-03-17T13:07:52.583Z,42.51
2023-03-17T13:10:40.748Z,45.21
2023-03-17T13:13:35.693Z,43.47
2023-03-17T13:16:05.879Z,42.68
2023-03-17T13:18:35.362Z,44.78
2023-03-17T13:21:02.123Z,43.94
2023-03-17T13:23:35.201Z,43.87
2023-03-17T13:26:04.343Z,43.30
2023-03-17T13:28:33.710Z,43.90
2023-03-17T13:31:29.306Z,42.63
2023-03-17T13:33:56.643Z,43.28
2023-03-17T13:36:28.700Z,43.23
2023-03-17T13:39:37.309Z,43.94
2023-03-17T13:42:30.967Z,42.81
2023-03-17T13:45:06.801Z,41.14
2023-03-17T13:47:35.464Z,42.51
2023-03-17T13:50:40.085Z,41.20
2023-03-17T13:53:10.339Z,44.46
2023-03-17T13:55:41.117Z,42.10
2023-03-17T13:58:11.921Z,47.01
2023-03-17T14:00:45.797Z,43.85
2023-03-17T14:03:51.145Z,44.60
2023-03-17T14:06:18.790Z,46.81
2023-03-17T14:08:47.859Z,45.32
2023-03-17T14:11:40.498Z,44.97
2023-03-17T14:14:31.470Z,44.77
2023-03-17T14:17:26.048Z,45.31
2023-03-17T14:20:21.143Z,47.16
2023-03-17T14:22:53.276Z,47.56
2023-03-17T14:25:24.001Z,45.08
2023-03-17T14:27:54.846Z,45.40
2023-03-17T14:30:26.419Z,45.85
2023-03-17T14:33:04.719Z,43.51
2023-03-17T14:35:42.896Z,45.01
2023-03-17T14:38:19.162Z,44.11
2023-03-17T14:40:45.970Z,45.84
2023-03-17T14:43:12.447Z,46.56
2023-03-17T14:45:53.062Z,47.46
2023-03-17T14:48:23.581Z,49.00
2023-03-17T14:50:59.832Z,48.14
2023-03-17T14:53:26.403Z,46.09
2023-03-17T14:55:52.988Z,44.92
2023-03-17T14:58:29.365Z,45.25
2023-03-17T15:01:02.010Z,46.85
2023-03-17T15:03:29.050Z,44.99
2023-03-17T15:06:07.539Z,45.81
2023-03-17T15:08:36.142Z,46.00
2023-03-17T15:11:03.950Z,44.92
2023-03-17T15:13:33.616Z,44.10
2023-03-17T15:16:05.274Z,46.03
2023-03-17T15:18:31.940Z,45.82
2023-03-17T15:21:00.330Z,43.53
2023-03-17T15:23:28.683Z,45.07
2023-03-17T15:25:56.359Z,46.84
2023-03-17T15:28:28.648Z,43.58
2023-03-17T15:30:57.004Z,43.63
2023-03-17T15:33:29.547Z,45.46
2023-03-17T15:35:56.820Z,46.43
2023-03-17T15:38:23.624Z,44.35
2023-03-17T15:40:50.220Z,47.22
2023-03-17T15:43:17.546Z,44.54
2023-03-17T15:45:45.074Z,46.07
2023-03-17T15:48:29.878Z,46.10
2023-03-17T15:50:58.465Z,44.97
2023-03-17T15:53:24.952Z,49.32
2023-03-17T15:55:51.654Z,46.93
2023-03-17T15:58:18.096Z,46.75
2023-03-17T16:00:45.097Z,52.27
2023-03-17T16:03:33.454Z,56.63
2023-03-17T16:06:00.612Z,53.13
2023-03-17T16:08:27.172Z,49.01
2023-03-17T16:10:53.728Z,47.50
2023-03-17T16:13:20.375Z,51.73
2023-03-17T16:15:58.220Z,51.93
2023-03-17T16:18:36.896Z,49.56
2023-03-17T16:21:04.264Z,49.14
2023-03-17T16:23:35.911Z,47.34
2023-03-17T16:26:14.194Z,49.69
2023-03-17T16:28:42.079Z,46.80
2023-03-17T16:31:30.182Z,44.68
2023-03-17T16:33:56.852Z,47.06
2023-03-17T16:36:23.781Z,45.96
2023-03-17T16:38:50.321Z,46.20
2023-03-17T16:41:24.815Z,50.63
2023-03-17T16:43:59.166Z,49.73
2023-03-17T16:46:25.851Z,49.62
2023-03-17T16:48:52.421Z,49.51
2023-03-17T16:51:18.983Z,50.51
2023-03-17T16:53:45.772Z,51.28
2023-03-17T16:56:17.887Z,50.94
2023-03-17T16:58:44.715Z,55.16
2023-03-17T17:01:25.511Z,52.68
2023-03-17T17:03:52.024Z,54.67
2023-03-17T17:06:18.653Z,54.35
2023-03-17T17:08:46.091Z,57.25
2023-03-17T17:11:13.520Z,54.27
2023-03-17T17:13:44.467Z,53.45
2023-03-17T17:16:32.814Z,56.96
2023-03-17T17:18:59.496Z,62.01
2023-03-17T17:21:26.434Z,64.53
2023-03-17T17:23:53.398Z,63.01
2023-03-17T17:26:20.084Z,63.78
2023-03-17T17:28:46.561Z,61.26
2023-03-17T17:31:13.506Z,65.14
2023-03-17T17:33:40.196Z,66.72
2023-03-17T17:36:11.402Z,66.99
2023-03-17T17:38:38.041Z,65.17
2023-03-17T17:41:05.857Z,68.22
2023-03-17T17:43:32.468Z,67.91
2023-03-17T17:45:59.016Z,68.20
2023-03-17T17:48:26.027Z,69.26
2023-03-17T17:50:53.006Z,70.68
2023-03-17T17:53:19.580Z,72.24
2023-03-17T17:55:46.767Z,72.04
2023-03-17T17:58:14.707Z,72.85
2023-03-17T18:00:41.457Z,73.44
2023-03-17T18:03:08.228Z,72.32
2023-03-17T18:05:34.790Z,73.18
2023-03-17T18:08:02.431Z,73.57
2023-03-17T18:10:29.710Z,72.29
2023-03-17T18:12:56.484Z,69.68
2023-03-17T18:15:23.897Z,68.15
2023-03-17T18:17:50.480Z,70.55
2023-03-17T18:20:18.319Z,73.54
2023-03-17T18:22:45.033Z,74.53
2023-03-17T18:25:12.720Z,77.84
2023-03-17T18:27:39.242Z,76.13
2023-03-17T18:30:07.448Z,77.51
2023-03-17T18:32:33.944Z,77.69
2023-03-17T18:35:02.867Z,77.93
2023-03-17T18:37:29.434Z,77.89
2023-03-17T18:40:12.504Z,78.19
2023-03-17T18:42:41.102Z,77.78
2023-03-17T18:45:09.684Z,78.26
2023-03-17T18:47:37.625Z,78.41
2023-03-17T18:50:05.091Z,77.40
2023-03-17T18:52:35.610Z,77.70
2023-03-17T18:55:02.218Z,77.36
2023-03-17T18:57:28.838Z,76.50
2023-03-17T18:59:55.553Z,75.26
2023-03-17T19:02:22.236Z,75.81
2023-03-17T19:04:49.045Z,77.10
2023-03-17T19:07:16.347Z,80.05
2023-03-17T19:09:42.937Z,81.53
2023-03-17T19:12:09.896Z,82.26
2023-03-17T19:14:37.077Z,80.99
2023-03-17T19:17:03.824Z,81.23
2023-03-17T19:19:30.613Z,79.63
2023-03-17T19:21:57.084Z,80.24
2023-03-17T19:24:23.599Z,79.99
2023-03-17T19:26:50.385Z,80.67
2023-03-17T19:29:16.977Z,79.66
2023-03-17T19:31:43.806Z,80.07
2023-03-17T19:34:12.858Z,81.04
2023-03-17T19:36:40.391Z,80.47
2023-03-17T19:39:08.647Z,81.08
2023-03-17T19:41:35.471Z,80.68
2023-03-17T19:44:02.076Z,80.99
2023-03-17T19:46:29.345Z,81.29
2023-03-17T19:48:58.986Z,80.93
2023-03-17T19:51:27.117Z,81.28
2023-03-17T19:53:54.294Z,81.55
2023-03-17T19:56:21.189Z,83.14
2023-03-17T19:58:47.650Z,83.46
2023-03-17T20:01:14.252Z,82.65
2023-03-17T20:03:43.860Z,82.49
2023-03-17T20:06:11.264Z,81.80
2023-03-17T20:08:39.155Z,82.61
2023-03-17T20:11:06.010Z,82.38
2023-03-17T20:13:33.177Z,82.41
2023-03-17T20:16:01.560Z,81.87
2023-03-17T20:18:28.873Z,81.03
2023-03-17T20:20:57.238Z,80.89
2023-03-17T20:23:24.375Z,82.96
2023-03-17T20:25:51.353Z,82.84
2023-03-17T20:28:18.043Z,82.40
2023-03-17T20:30:44.720Z,82.30
2023-03-17T20:33:14.228Z,81.90
2023-03-17T20:35:42.004Z,82.09
2023-03-17T20:38:09.300Z,83.09
2023-03-17T20:40:36.113Z,83.34
2023-03-17T20:43:02.633Z,83.43
2023-03-17T20:45:29.340Z,83.64
2023-03-17T20:47:56.131Z,83.57
2023-03-17T20:50:22.840Z,83.86
2023-03-17T20:52:49.661Z,84.67
2023-03-17T20:55:16.383Z,84.42
2023-03-17T20:57:45.239Z,82.78
2023-03-17T21:00:12.643Z,82.34
2023-03-17T21:02:39.404Z,83.44
2023-03-17T21:05:07.340Z,83.80
2023-03-17T21:07:33.821Z,83.14
2023-03-17T21:10:02.049Z,84.17
2023-03-17T21:12:28.595Z,85.39
2023-03-17T21:14:55.780Z,83.61
2023-03-17T21:17:22.885Z,83.17
2023-03-17T21:19:49.489Z,83.84
2023-03-17T21:22:16.122Z,83.97
2023-03-17T21:24:42.620Z,83.65
2023-03-17T21:27:11.872Z,85.25
2023-03-17T21:29:38.634Z,83.56
2023-03-17T21:32:05.325Z,83.83
2023-03-17T21:34:31.891Z,84.94
2023-03-17T21:36:58.879Z,85.01
2023-03-17T21:39:28.129Z,83.82
2023-03-17T21:41:56.010Z,83.41
2023-03-17T21:44:22.489Z,85.26
2023-03-17T21:46:49.225Z,84.49
2023-03-17T21:49:16.306Z,83.59
2023-03-17T21:51:44.162Z,84.16
2023-03-17T21:54:11.358Z,83.84
2023-03-17T21:56:38.567Z,85.17
2023-03-17T21:59:05.751Z,85.26
2023-03-17T22:01:32.344Z,86.07
2023-03-17T22:03:59.558Z,85.89
2023-03-17T22:06:27.416Z,85.97
2023-03-17T22:08:54.103Z,85.86
2023-03-17T22:11:20.571Z,85.02
2023-03-17T22:13:47.260Z,86.19
2023-03-17T22:16:14.056Z,84.49
2023-03-17T22:18:40.670Z,84.15
2023-03-17T22:21:08.254Z,85.30
2023-03-17T22:23:41.187Z,83.98
2023-03-17T22:26:09.196Z,85.22
2023-03-17T22:28:35.697Z,85.25
2023-03-17T22:31:07.029Z,85.35
2023-03-17T22:33:34.094Z,84.37
2023-03-17T22:36:00.623Z,86.02
2023-03-17T22:38:27.188Z,85.90
2023-03-17T22:41:05.271Z,85.51
2023-03-17T22:43:32.646Z,87.50
2023-03-17T22:45:59.163Z,86.64
2023-03-17T22:48:26.224Z,85.84
2023-03-17T22:50:52.707Z,84.97
2023-03-17T22:53:19.170Z,85.99
2023-03-17T22:55:45.797Z,86.34
2023-03-17T22:58:12.586Z,85.56
2023-03-17T23:00:40.254Z,86.62
2023-03-17T23:03:07.259Z,86.74
2023-03-17T23:05:33.800Z,85.79
2023-03-17T23:08:00.353Z,86.66
2023-03-17T23:10:27.314Z,86.32
2023-03-17T23:12:53.921Z,87.23
2023-03-17T23:15:21.026Z,87.75
2023-03-17T23:17:47.616Z,87.10
2023-03-17T23:20:15.066Z,86.37
2023-03-17T23:22:41.579Z,87.67
2023-03-17T23:25:08.532Z,86.65
2023-03-17T23:27:35.263Z,85.68
2023-03-17T23:30:01.794Z,86.17
2023-03-17T23:32:28.360Z,87.27
2023-03-17T23:34:54.877Z,86.83
2023-03-17T23:37:21.608Z,85.64
2023-03-17T23:39:48.505Z,85.69
2023-03-17T23:42:17.004Z,84.85
2023-03-17T23:44:45.019Z,86.14
2023-03-17T23:47:11.680Z,85.35
2023-03-17T23:49:38.787Z,85.19
2023-03-17T23:52:05.351Z,86.40
2023-03-17T23:54:32.008Z,85.91
2023-03-17T23:56:58.698Z,85.75
2023-03-17T23:59:25.272Z,87.36
